createdAt,value
2018-04-27T00:00:23.657Z,16.59
2018-04-27T00:02:51.229Z,16.55
2018-04-27T00:05:18.860Z,16.51
2018-04-27T00:07:46.598Z,16.45
2018-04-27T00:10:14.263Z,16.37
2018-04-27T00:12:41.841Z,16.29
2018-04-27T00:15:09.396Z,16.34
2018-04-27T00:17:37.170Z,16.28
2018-04-27T00:20:04.740Z,16.25
2018-04-27T00:22:32.305Z,16.19
2018-04-27T00:24:59.852Z,16.24
2018-04-27T00:27:27.414Z,16.29
2018-04-27T00:29:55.037Z,16.28
2018-04-27T00:32:22.645Z,16.34
2018-04-27T00:34:50.249Z,16.38
2018-04-27T00:37:17.830Z,16.39
2018-04-27T00:39:45.396Z,16.28
2018-04-27T00:42:13.018Z,16.32
2018-04-27T00:44:40.590Z,16.31
2018-04-27T00:47:08.157Z,16.33
2018-04-27T00:49:35.732Z,16.26
2018-04-27T00:52:03.293Z,16.23
2018-04-27T00:54:31.138Z,16.22
2018-04-27T00:56:58.700Z,16.22
2018-04-27T00:59:26.260Z,16.25
2018-04-27T01:01:53.877Z,16.26
2018-04-27T01:04:21.606Z,16.23
2018-04-27T01:06:49.172Z,16.12
2018-04-27T01:09:16.783Z,15.96
2018-04-27T01:11:44.344Z,15.92
2018-04-27T01:14:12.053Z,15.86
2018-04-27T01:16:39.793Z,15.81
2018-04-27T01:19:07.357Z,15.78
2018-04-27T01:21:35.138Z,15.77
2018-04-27T01:24:02.767Z,15.80
2018-04-27T01:26:30.578Z,15.79
2018-04-27T01:28:58.392Z,15.80
2018-04-27T01:31:26.211Z,15.85
2018-04-27T01:33:53.772Z,15.87
2018-04-27T01:36:21.329Z,15.89
2018-04-27T01:38:48.900Z,15.85
2018-04-27T01:41:16.682Z,15.87
2018-04-27T01:43:44.229Z,15.87
2018-04-27T01:46:11.798Z,15.95
2018-04-27T01:48:39.360Z,16.07
2018-04-27T01:51:06.949Z,16.15
2018-04-27T01:53:34.673Z,16.23
2018-04-27T01:56:02.233Z,16.30
2018-04-27T01:58:29.895Z,16.34
2018-04-27T02:00:57.472Z,16.34
2018-04-27T02:03:25.037Z,16.30
2018-04-27T02:05:52.762Z,16.26
2018-04-27T02:08:20.351Z,16.04
2018-04-27T02:10:47.944Z,16.07
2018-04-27T02:13:15.564Z,15.94
2018-04-27T02:15:43.227Z,15.87
2018-04-27T02:18:10.953Z,15.77
2018-04-27T02:20:38.774Z,15.70
2018-04-27T02:23:06.351Z,15.76
2018-04-27T02:25:34.183Z,15.84
2018-04-27T02:28:01.900Z,15.92
2018-04-27T02:30:29.461Z,15.95
2018-04-27T02:32:57.264Z,15.97
2018-04-27T02:35:24.952Z,15.94
2018-04-27T02:37:52.501Z,15.90
2018-04-27T02:40:20.109Z,15.83
2018-04-27T02:42:47.937Z,15.75
2018-04-27T02:45:15.752Z,15.79
2018-04-27T02:47:43.333Z,15.86
2018-04-27T02:50:10.894Z,15.88
2018-04-27T02:52:38.527Z,15.99
2018-04-27T02:55:06.326Z,16.11
2018-04-27T02:57:33.895Z,16.18
2018-04-27T03:00:01.769Z,16.27
2018-04-27T03:02:29.332Z,16.28
2018-04-27T03:04:56.912Z,16.14
2018-04-27T03:07:24.476Z,16.06
2018-04-27T03:09:52.055Z,16.01
2018-04-27T03:12:19.699Z,15.94
2018-04-27T03:14:47.253Z,15.92
2018-04-27T03:17:14.894Z,15.92
2018-04-27T03:19:42.603Z,15.90
2018-04-27T03:22:10.164Z,15.88
2018-04-27T03:24:37.798Z,15.89
2018-04-27T03:27:05.361Z,15.86
2018-04-27T03:29:32.924Z,15.87
2018-04-27T03:32:00.697Z,15.89
2018-04-27T03:34:28.267Z,15.83
2018-04-27T03:36:55.899Z,15.84
2018-04-27T03:39:23.652Z,15.82
2018-04-27T03:41:51.222Z,15.83
2018-04-27T03:44:18.807Z,15.88
2018-04-27T03:46:46.393Z,15.97
2018-04-27T03:49:14.029Z,16.05
2018-04-27T03:51:41.600Z,16.18
2018-04-27T03:54:09.176Z,16.27
2018-04-27T03:56:36.753Z,16.27
2018-04-27T03:59:04.338Z,16.29
2018-04-27T04:01:43.853Z,16.25
2018-04-27T04:04:23.412Z,16.30
2018-04-27T04:06:50.989Z,16.33
2018-04-27T04:09:18.748Z,16.33
2018-04-27T04:11:46.567Z,16.34
2018-04-27T04:14:14.131Z,16.38
2018-04-27T04:16:41.812Z,16.44
2018-04-27T04:19:09.401Z,16.55
2018-04-27T04:21:37.020Z,16.62
2018-04-27T04:24:04.859Z,16.77
2018-04-27T04:26:32.675Z,16.85
2018-04-27T04:29:01.072Z,16.84
2018-04-27T04:31:28.915Z,16.83
2018-04-27T04:33:56.472Z,16.85
2018-04-27T04:36:24.251Z,16.77
2018-04-27T04:38:51.819Z,16.67
2018-04-27T04:41:19.391Z,16.70
2018-04-27T04:43:47.207Z,16.70
2018-04-27T04:46:14.764Z,16.70
2018-04-27T04:48:42.395Z,16.72
2018-04-27T04:51:10.040Z,16.74
2018-04-27T04:53:37.879Z,16.74
2018-04-27T04:56:05.459Z,16.73
2018-04-27T04:58:33.021Z,16.79
2018-04-27T05:01:00.723Z,16.89
2018-04-27T05:03:28.325Z,16.94
2018-04-27T05:05:56.169Z,16.97
2018-04-27T05:08:23.736Z,16.98
2018-04-27T05:10:51.448Z,16.93
2018-04-27T05:13:19.053Z,16.93
2018-04-27T05:15:46.612Z,16.94
2018-04-27T05:21:15.957Z,16.89
2018-04-27T05:23:43.592Z,16.90
2018-04-27T05:26:11.167Z,16.93
2018-04-27T05:28:38.749Z,16.97
2018-04-27T05:31:17.993Z,17.03
2018-04-27T05:33:45.569Z,17.14
2018-04-27T05:36:13.193Z,17.23
2018-04-27T05:38:40.822Z,17.23
2018-04-27T05:41:08.496Z,17.26
2018-04-27T05:43:36.100Z,17.27
2018-04-27T05:46:03.817Z,17.30
2018-04-27T05:48:31.444Z,17.61
2018-04-27T05:50:59.030Z,18.67
2018-04-27T05:53:26.732Z,20.34
2018-04-27T05:55:54.529Z,21.63
2018-04-27T05:58:22.165Z,22.96
2018-04-27T06:00:49.926Z,23.83
2018-04-27T06:03:17.703Z,24.79
2018-04-27T06:05:45.369Z,25.64
2018-04-27T06:08:12.966Z,26.43
2018-04-27T06:10:40.549Z,27.07
2018-04-27T06:13:08.165Z,27.57
2018-04-27T06:15:35.748Z,28.00
2018-04-27T06:18:03.653Z,27.78
2018-04-27T06:20:31.472Z,27.12
2018-04-27T06:22:59.041Z,26.88
2018-04-27T06:25:26.808Z,27.01
2018-04-27T06:27:54.408Z,27.32
2018-04-27T06:30:22.036Z,28.12
2018-04-27T06:32:49.653Z,28.82
2018-04-27T06:35:17.320Z,29.44
2018-04-27T06:37:45.098Z,30.29
2018-04-27T06:40:12.672Z,31.40
2018-04-27T06:42:40.353Z,32.16
2018-04-27T06:45:07.972Z,32.65
2018-04-27T06:47:35.592Z,32.49
2018-04-27T06:50:03.388Z,32.45
2018-04-27T06:52:31.209Z,32.71
2018-04-27T06:54:58.836Z,32.29
2018-04-27T06:57:26.469Z,32.14
2018-04-27T06:59:54.158Z,31.11
2018-04-27T07:02:21.776Z,30.49
2018-04-27T07:04:49.392Z,30.08
2018-04-27T07:07:17.066Z,30.41
2018-04-27T07:09:44.737Z,30.78
2018-04-27T07:12:12.356Z,31.25
2018-04-27T07:14:39.987Z,31.47
2018-04-27T07:17:07.808Z,32.30
2018-04-27T07:19:35.430Z,32.90
2018-04-27T07:22:03.015Z,33.53
2018-04-27T07:24:30.653Z,33.74
2018-04-27T07:26:58.285Z,32.80
2018-04-27T07:29:25.840Z,32.19
2018-04-27T07:31:53.476Z,31.06
2018-04-27T07:34:21.056Z,30.43
2018-04-27T07:36:48.640Z,30.00
2018-04-27T07:39:16.451Z,30.01
2018-04-27T07:41:44.054Z,30.13
2018-04-27T07:44:11.745Z,29.97
2018-04-27T07:46:39.344Z,30.01
2018-04-27T07:49:06.945Z,30.44
2018-04-27T07:51:34.620Z,30.83
2018-04-27T07:54:02.249Z,30.76
2018-04-27T07:56:29.901Z,30.09
2018-04-27T07:58:57.524Z,30.67
2018-04-27T08:01:25.133Z,31.87
2018-04-27T08:03:52.849Z,31.91
2018-04-27T08:06:20.510Z,32.65
2018-04-27T08:08:48.196Z,33.38
2018-04-27T08:11:15.868Z,33.48
2018-04-27T08:13:43.489Z,33.46
2018-04-27T08:16:11.156Z,33.78
2018-04-27T08:18:38.860Z,34.08
2018-04-27T08:21:06.481Z,34.53
2018-04-27T08:23:34.151Z,33.73
2018-04-27T08:26:01.884Z,33.72
2018-04-27T08:28:29.588Z,33.21
2018-04-27T08:30:57.432Z,32.12
2018-04-27T08:33:25.089Z,31.54
2018-04-27T08:35:52.738Z,31.13
2018-04-27T08:38:20.324Z,30.82
2018-04-27T08:40:47.945Z,30.13
2018-04-27T08:43:15.565Z,30.00
2018-04-27T08:45:43.405Z,29.75
2018-04-27T08:48:11.019Z,30.39
2018-04-27T08:50:38.662Z,30.81
2018-04-27T08:53:06.362Z,31.22
2018-04-27T08:55:34.033Z,31.06
2018-04-27T08:58:01.736Z,30.72
2018-04-27T09:00:29.428Z,29.85
2018-04-27T09:02:57.144Z,29.38
2018-04-27T09:05:24.987Z,30.02
2018-04-27T09:07:52.590Z,29.64
2018-04-27T09:10:20.228Z,29.44
2018-04-27T09:12:47.845Z,29.03
2018-04-27T09:15:15.662Z,29.82
2018-04-27T09:17:43.356Z,29.92
2018-04-27T09:20:11.172Z,28.98
2018-04-27T09:22:38.780Z,27.74
2018-04-27T09:25:06.379Z,27.25
2018-04-27T09:27:34.369Z,26.80
2018-04-27T09:30:04.196Z,27.21
2018-04-27T09:32:31.913Z,27.76
2018-04-27T09:34:59.663Z,28.58
2018-04-27T09:37:27.269Z,29.14
2018-04-27T09:39:54.888Z,29.44
2018-04-27T09:42:22.633Z,29.62
2018-04-27T09:44:50.310Z,30.43
2018-04-27T09:47:18.035Z,30.22
2018-04-27T09:49:45.773Z,29.67
2018-04-27T09:52:13.478Z,30.52
2018-04-27T09:54:41.168Z,30.49
2018-04-27T09:57:08.796Z,30.36
2018-04-27T09:59:36.492Z,28.94
2018-04-27T10:02:04.125Z,29.40
2018-04-27T10:04:31.962Z,29.67
2018-04-27T10:07:00.049Z,29.72
2018-04-27T10:09:27.712Z,29.75
2018-04-27T10:11:55.516Z,29.56
2018-04-27T10:14:23.181Z,29.66
2018-04-27T10:16:50.775Z,29.30
2018-04-27T10:19:18.496Z,28.97
2018-04-27T10:21:46.164Z,29.65
2018-04-27T10:24:14.149Z,29.70
2018-04-27T10:26:41.927Z,29.45
2018-04-27T10:29:09.756Z,29.37
2018-04-27T10:31:37.467Z,29.58
2018-04-27T10:34:05.105Z,30.02
2018-04-27T10:36:32.751Z,29.84
2018-04-27T10:39:00.628Z,29.61
2018-04-27T10:41:28.262Z,29.94
2018-04-27T10:43:55.923Z,30.29
2018-04-27T10:46:23.485Z,29.99
2018-04-27T10:48:51.106Z,30.48
2018-04-27T10:51:18.759Z,30.61
2018-04-27T10:53:46.385Z,30.99
2018-04-27T10:56:14.064Z,30.82
2018-04-27T10:58:41.730Z,30.70
2018-04-27T11:01:09.454Z,30.86
2018-04-27T11:03:37.165Z,31.18
2018-04-27T11:06:04.797Z,31.60
2018-04-27T11:08:32.646Z,31.65
2018-04-27T11:11:00.309Z,31.43
2018-04-27T11:13:28.029Z,30.99
2018-04-27T11:15:55.902Z,30.78
2018-04-27T11:18:23.516Z,30.36
2018-04-27T11:20:51.200Z,29.48
2018-04-27T11:23:18.825Z,28.70
2018-04-27T11:25:46.676Z,28.08
2018-04-27T11:28:14.263Z,28.26
2018-04-27T11:30:41.816Z,28.82
2018-04-27T11:33:09.445Z,29.35
2018-04-27T11:35:37.148Z,29.85
2018-04-27T11:38:04.968Z,30.20
2018-04-27T11:40:32.592Z,29.96
2018-04-27T11:43:00.303Z,30.04
2018-04-27T11:45:28.014Z,29.68
2018-04-27T11:47:55.620Z,29.81
2018-04-27T11:50:23.276Z,29.82
2018-04-27T11:52:50.888Z,29.52
2018-04-27T11:55:18.483Z,29.51
2018-04-27T11:57:46.252Z,29.58
2018-04-27T12:00:13.881Z,29.88
2018-04-27T12:02:41.509Z,29.78
2018-04-27T12:05:09.365Z,29.89
2018-04-27T12:07:36.973Z,29.75
2018-04-27T12:10:04.708Z,30.00
2018-04-27T12:12:32.381Z,30.14
2018-04-27T12:15:00.023Z,29.91
2018-04-27T12:17:27.633Z,30.13
2018-04-27T12:19:55.192Z,30.38
2018-04-27T12:22:22.892Z,30.57
2018-04-27T12:24:52.025Z,30.71
2018-04-27T12:27:19.738Z,30.58
2018-04-27T12:29:47.289Z,30.57
2018-04-27T12:32:15.071Z,30.31
2018-04-27T12:34:42.787Z,30.42
2018-04-27T12:37:10.583Z,30.28
2018-04-27T12:39:38.278Z,30.41
2018-04-27T12:42:06.144Z,30.81
2018-04-27T12:44:33.829Z,30.94
2018-04-27T12:47:01.542Z,30.52
2018-04-27T12:49:29.189Z,30.31
2018-04-27T12:51:56.814Z,30.34
2018-04-27T12:54:24.527Z,30.34
2018-04-27T12:56:52.215Z,30.40
2018-04-27T12:59:19.909Z,29.91
2018-04-27T13:01:47.505Z,29.83
2018-04-27T13:04:15.133Z,29.97
2018-04-27T13:06:42.759Z,30.05
2018-04-27T13:09:10.406Z,30.19
2018-04-27T13:11:38.101Z,30.23
2018-04-27T13:14:05.722Z,30.12
2018-04-27T13:16:33.337Z,30.15
2018-04-27T13:19:00.952Z,30.02
2018-04-27T13:21:28.576Z,30.14
2018-04-27T13:23:56.188Z,30.34
2018-04-27T13:26:23.771Z,30.42
2018-04-27T13:28:51.348Z,30.68
2018-04-27T13:31:19.009Z,30.64
2018-04-27T13:33:46.825Z,30.76
2018-04-27T13:36:14.369Z,30.77
2018-04-27T13:38:41.953Z,30.76
2018-04-27T13:41:09.777Z,30.82
2018-04-27T13:43:37.597Z,30.70
2018-04-27T13:46:05.224Z,30.70
2018-04-27T13:48:32.841Z,30.52
2018-04-27T13:51:00.651Z,30.56
2018-04-27T13:53:28.312Z,30.72
2018-04-27T13:55:56.054Z,30.57
2018-04-27T13:58:23.905Z,30.51
2018-04-27T14:00:51.565Z,29.97
2018-04-27T14:03:19.192Z,29.45
2018-04-27T14:05:46.961Z,29.36
2018-04-27T14:08:15.368Z,28.73
2018-04-27T14:10:43.108Z,28.31
2018-04-27T14:13:10.725Z,28.30
2018-04-27T14:15:38.356Z,28.17
2018-04-27T14:18:05.973Z,27.65
2018-04-27T14:20:33.596Z,27.31
2018-04-27T14:23:01.236Z,27.19
2018-04-27T14:25:28.896Z,27.34
2018-04-27T14:27:56.460Z,27.24
2018-04-27T14:30:24.262Z,27.21
2018-04-27T14:32:51.836Z,27.41
2018-04-27T14:35:19.577Z,27.62
2018-04-27T14:37:47.144Z,27.79
2018-04-27T14:40:14.770Z,27.68
2018-04-27T14:42:42.351Z,27.40
2018-04-27T14:45:10.069Z,27.05
2018-04-27T14:47:37.889Z,26.91
2018-04-27T14:50:05.460Z,26.80
2018-04-27T14:52:33.224Z,26.81
2018-04-27T14:55:00.784Z,26.84
2018-04-27T14:57:28.529Z,26.96
2018-04-27T14:59:56.379Z,27.08
2018-04-27T15:02:24.197Z,27.18
2018-04-27T15:04:51.772Z,27.18
2018-04-27T15:07:19.532Z,27.10
2018-04-27T15:09:47.144Z,27.02
2018-04-27T15:12:14.780Z,26.86
2018-04-27T15:14:42.396Z,26.80
2018-04-27T15:17:09.985Z,26.93
2018-04-27T15:19:37.604Z,26.99
2018-04-27T15:22:05.202Z,27.17
2018-04-27T15:24:32.959Z,27.08
2018-04-27T15:27:00.808Z,26.97
2018-04-27T15:29:28.442Z,26.93
2018-04-27T15:31:56.105Z,26.88
2018-04-27T15:34:23.693Z,26.83
2018-04-27T15:36:51.253Z,26.83
2018-04-27T15:39:18.923Z,26.90
2018-04-27T15:41:46.544Z,26.98
2018-04-27T15:44:14.406Z,27.00
2018-04-27T15:46:42.016Z,26.87
2018-04-27T15:49:09.625Z,26.65
2018-04-27T15:51:37.300Z,26.47
2018-04-27T15:54:04.957Z,26.40
2018-04-27T15:56:32.797Z,26.39
2018-04-27T15:59:00.471Z,26.27
2018-04-27T16:01:28.112Z,26.06
2018-04-27T16:03:55.873Z,25.93
2018-04-27T16:06:23.549Z,25.85
2018-04-27T16:08:51.233Z,25.75
2018-04-27T16:11:18.841Z,25.52
2018-04-27T16:13:53.313Z,25.31
2018-04-27T16:16:21.945Z,25.15
2018-04-27T16:18:49.617Z,25.02
2018-04-27T16:21:17.261Z,24.85
2018-04-27T16:23:45.836Z,24.80
2018-04-27T16:26:13.535Z,24.73
2018-04-27T16:28:41.261Z,24.65
2018-04-27T16:31:08.900Z,24.56
2018-04-27T16:33:36.576Z,24.55
2018-04-27T16:36:04.248Z,24.59
2018-04-27T16:38:31.877Z,24.61
2018-04-27T16:40:59.508Z,24.63
2018-04-27T16:43:27.270Z,24.62
2018-04-27T16:45:54.845Z,24.57
2018-04-27T16:48:22.473Z,24.52
2018-04-27T16:50:50.118Z,24.49
2018-04-27T16:53:17.685Z,24.41
2018-04-27T16:55:45.293Z,24.34
2018-04-27T16:58:12.901Z,24.24
2018-04-27T17:00:40.572Z,24.15
2018-04-27T17:03:08.198Z,24.07
2018-04-27T17:05:35.812Z,24.02
2018-04-27T17:08:03.455Z,23.96
2018-04-27T17:10:31.103Z,23.91
2018-04-27T17:12:58.845Z,23.79
2018-04-27T17:15:26.479Z,23.73
2018-04-27T17:17:54.114Z,23.68
2018-04-27T17:20:21.759Z,23.59
2018-04-27T17:22:49.459Z,23.51
2018-04-27T17:25:17.120Z,23.48
2018-04-27T17:27:44.863Z,23.38
2018-04-27T17:30:12.485Z,23.30
2018-04-27T17:32:40.107Z,23.22
2018-04-27T17:35:07.961Z,23.18
2018-04-27T17:37:35.869Z,23.07
2018-04-27T17:40:03.588Z,22.98
2018-04-27T17:42:31.429Z,22.95
2018-04-27T17:44:59.207Z,22.86
2018-04-27T17:47:26.899Z,22.85
2018-04-27T17:49:54.532Z,22.80
2018-04-27T17:52:22.140Z,22.74
2018-04-27T17:54:49.788Z,22.72
2018-04-27T17:57:17.385Z,22.70
2018-04-27T17:59:44.956Z,22.65
2018-04-27T18:02:12.625Z,22.65
2018-04-27T18:04:40.257Z,22.66
2018-04-27T18:07:07.897Z,22.62
2018-04-27T18:09:35.707Z,22.63
2018-04-27T18:12:03.724Z,22.61
2018-04-27T18:14:31.197Z,22.48
2018-04-27T18:16:58.809Z,22.46
2018-04-27T18:19:27.376Z,22.44
2018-04-27T18:21:55.200Z,22.48
2018-04-27T18:24:22.844Z,22.40
2018-04-27T18:26:50.481Z,22.28
2018-04-27T18:29:18.297Z,22.19
2018-04-27T18:31:45.940Z,22.04
2018-04-27T18:34:13.490Z,21.89
2018-04-27T18:36:41.104Z,21.80
2018-04-27T18:39:08.904Z,21.73
2018-04-27T18:41:36.748Z,21.66
2018-04-27T18:44:04.446Z,21.59
2018-04-27T18:46:32.478Z,21.57
2018-04-27T18:49:00.095Z,21.60
2018-04-27T18:51:27.844Z,21.56
2018-04-27T18:53:55.532Z,21.56
2018-04-27T18:56:23.199Z,21.61
2018-04-27T18:58:51.687Z,21.63
2018-04-27T19:01:20.217Z,21.63
2018-04-27T19:03:49.608Z,21.64
2018-04-27T19:06:17.441Z,21.67
2018-04-27T19:08:45.119Z,21.67
2018-04-27T19:11:12.980Z,21.65
2018-04-27T19:13:40.581Z,21.63
2018-04-27T19:16:08.209Z,21.54
2018-04-27T19:18:35.825Z,21.57
2018-04-27T19:21:04.457Z,21.59
2018-04-27T19:23:39.713Z,21.57
2018-04-27T19:26:19.141Z,21.52
2018-04-27T19:28:47.518Z,21.50
2018-04-27T19:31:15.145Z,21.48
2018-04-27T19:33:43.019Z,21.44
2018-04-27T19:36:10.663Z,21.41
2018-04-27T19:38:38.553Z,21.39
2018-04-27T19:41:06.172Z,21.41
2018-04-27T19:43:33.786Z,21.38
2018-04-27T19:46:01.499Z,21.36
2018-04-27T19:48:29.116Z,21.37
2018-04-27T19:50:56.881Z,21.25
2018-04-27T19:53:24.508Z,21.13
2018-04-27T19:55:52.284Z,21.09
2018-04-27T19:58:19.884Z,21.02
2018-04-27T20:00:47.489Z,20.93
2018-04-27T20:03:15.335Z,20.81
2018-04-27T20:05:45.580Z,20.75
2018-04-27T20:08:13.240Z,20.63
2018-04-27T20:10:40.870Z,20.55
2018-04-27T20:13:12.299Z,20.48
2018-04-27T20:15:40.148Z,20.36
2018-04-27T20:18:08.591Z,20.30
2018-04-27T20:20:36.307Z,20.22
2018-04-27T20:23:08.385Z,20.16
2018-04-27T20:25:36.011Z,20.14
2018-04-27T20:28:07.673Z,20.14
2018-04-27T20:30:35.491Z,20.10
2018-04-27T20:33:03.213Z,20.09
2018-04-27T20:35:30.963Z,20.09
2018-04-27T20:41:13.184Z,20.10
2018-04-27T20:43:40.810Z,20.03
2018-04-27T20:46:08.545Z,20.00
2018-04-27T20:48:36.174Z,19.98
2018-04-27T20:51:06.537Z,19.91
2018-04-27T20:53:41.880Z,19.90
2018-04-27T20:56:09.673Z,19.88
2018-04-27T20:58:37.373Z,19.78
2018-04-27T21:01:05.045Z,19.71
2018-04-27T21:03:32.761Z,19.69
2018-04-27T21:06:00.482Z,19.67
2018-04-27T21:08:28.140Z,19.64
2018-04-27T21:10:55.883Z,19.64
2018-04-27T21:13:23.501Z,19.60
2018-04-27T21:15:51.320Z,19.52
2018-04-27T21:18:20.549Z,19.40
2018-04-27T21:20:48.330Z,19.30
2018-04-27T21:23:16.066Z,19.17
2018-04-27T21:25:43.709Z,19.17
2018-04-27T21:28:13.022Z,19.18
2018-04-27T21:30:40.717Z,19.15
2018-04-27T21:33:09.272Z,19.21
2018-04-27T21:35:52.537Z,19.21
2018-04-27T21:41:28.312Z,19.22
2018-04-27T21:47:13.424Z,19.21
2018-04-27T21:49:41.038Z,19.16
2018-04-27T21:52:10.566Z,19.14
2018-04-27T21:54:38.216Z,19.12
2018-04-27T21:57:07.529Z,19.13
2018-04-27T22:03:10.314Z,19.10
2018-04-27T22:08:55.421Z,18.99
2018-04-27T22:14:23.956Z,18.85
2018-04-27T22:16:59.373Z,18.77
2018-04-27T22:19:27.133Z,18.72
2018-04-27T22:21:54.782Z,18.72
2018-04-27T22:24:23.648Z,18.73
2018-04-27T22:27:10.093Z,18.74
2018-04-27T22:29:40.635Z,18.70
2018-04-27T22:32:08.479Z,18.69
2018-04-27T22:34:38.492Z,18.62
2018-04-27T22:37:06.241Z,18.67
2018-04-27T22:39:44.981Z,18.63
2018-04-27T22:42:13.244Z,18.52
2018-04-27T22:47:40.536Z,18.47
2018-04-27T22:50:09.096Z,18.44
2018-04-27T22:52:40.706Z,18.39
2018-04-27T22:55:10.461Z,18.36
2018-04-27T23:00:44.601Z,18.29
2018-04-27T23:03:13.323Z,18.32
2018-04-27T23:05:50.902Z,18.31
2018-04-27T23:08:18.516Z,18.22
2018-04-27T23:10:51.111Z,18.29
2018-04-27T23:13:21.850Z,18.23
2018-04-27T23:16:01.093Z,18.22
2018-04-27T23:18:44.381Z,18.28
2018-04-27T23:24:15.501Z,18.20
2018-04-27T23:26:43.136Z,18.17
2018-04-27T23:29:10.757Z,18.17
2018-04-27T23:31:42.082Z,18.17
2018-04-27T23:34:09.700Z,18.15
2018-04-27T23:36:37.446Z,18.18
2018-04-27T23:39:05.952Z,18.21
2018-04-27T23:41:33.552Z,18.19
2018-04-27T23:44:01.172Z,18.19
2018-04-27T23:46:29.022Z,18.15
2018-04-27T23:48:56.840Z,18.12
2018-04-27T23:51:24.672Z,18.09
2018-04-27T23:53:53.152Z,18.09
2018-04-27T23:56:20.782Z,18.13
2018-04-27T23:58:48.404Z,18.19
